createdAt,value
2023-03-16T00:01:33.700Z,1.20
2023-03-16T00:03:46.660Z,1.10
2023-03-16T00:06:00.069Z,0.90
2023-03-16T00:08:14.142Z,1.10
2023-03-16T00:10:28.682Z,0.70
2023-03-16T00:12:44.627Z,0.90
2023-03-16T00:14:57.908Z,1.10
2023-03-16T00:17:10.756Z,0.70
2023-03-16T00:19:25.256Z,1.30
2023-03-16T00:21:38.879Z,1.00
2023-03-16T00:23:51.621Z,1.10
2023-03-16T00:26:07.627Z,1.10
2023-03-16T00:28:20.480Z,1.40
2023-03-16T00:30:33.788Z,1.70
2023-03-16T00:32:47.218Z,1.30
2023-03-16T00:35:03.251Z,1.50
2023-03-16T00:37:17.182Z,1.20
2023-03-16T00:39:29.968Z,1.70
2023-03-16T00:41:44.040Z,1.80
2023-03-16T00:43:56.635Z,1.50
2023-03-16T00:46:10.102Z,1.80
2023-03-16T00:48:25.560Z,1.70
2023-03-16T00:50:37.770Z,1.50
2023-03-16T00:52:50.937Z,1.80
2023-03-16T00:55:04.519Z,1.90
2023-03-16T00:57:20.000Z,1.30
2023-03-16T00:59:33.669Z,1.90
2023-03-16T01:01:47.947Z,1.50
2023-03-16T01:04:00.895Z,1.20
2023-03-16T01:06:16.177Z,1.30
2023-03-16T01:08:30.810Z,1.20
2023-03-16T01:10:46.438Z,1.40
2023-03-16T01:12:59.159Z,1.70
2023-03-16T01:15:14.865Z,1.10
2023-03-16T01:17:27.876Z,2.00
2023-03-16T01:19:41.056Z,1.60
2023-03-16T01:21:54.757Z,1.30
2023-03-16T01:24:09.097Z,1.20
2023-03-16T01:26:22.124Z,1.10
2023-03-16T01:28:36.985Z,1.30
2023-03-16T01:30:51.762Z,1.20
2023-03-16T01:33:04.794Z,1.50
2023-03-16T01:35:18.404Z,1.30
2023-03-16T01:37:32.777Z,1.10
2023-03-16T01:39:54.250Z,1.00
2023-03-16T01:42:07.503Z,1.00
2023-03-16T01:44:23.723Z,1.20
2023-03-16T01:46:38.066Z,1.00
2023-03-16T01:49:06.608Z,1.30
2023-03-16T01:51:24.310Z,1.00
2023-03-16T01:53:37.895Z,1.20
2023-03-16T01:55:50.975Z,1.60
2023-03-16T01:58:03.718Z,1.30
2023-03-16T02:00:20.522Z,1.00
2023-03-16T02:03:03.557Z,1.00
2023-03-16T02:05:29.057Z,1.40
2023-03-16T02:07:47.687Z,1.20
2023-03-16T02:10:03.703Z,0.90
2023-03-16T02:12:19.252Z,1.50
2023-03-16T02:14:36.195Z,1.40
2023-03-16T02:16:49.124Z,1.40
2023-03-16T02:19:03.131Z,1.10
2023-03-16T02:21:22.977Z,1.00
2023-03-16T02:23:36.188Z,1.20
2023-03-16T02:25:53.414Z,1.50
2023-03-16T02:28:11.867Z,1.30
2023-03-16T02:30:28.129Z,1.50
2023-03-16T02:32:46.177Z,1.00
2023-03-16T02:35:01.793Z,1.50
2023-03-16T02:37:16.001Z,1.00
2023-03-16T02:39:29.597Z,1.40
2023-03-16T02:41:43.336Z,2.20
2023-03-16T02:44:00.420Z,1.50
2023-03-16T02:46:17.988Z,1.40
2023-03-16T02:48:35.158Z,1.50
2023-03-16T02:50:53.043Z,1.70
2023-03-16T02:53:06.207Z,1.40
2023-03-16T02:55:19.579Z,1.80
2023-03-16T02:57:32.725Z,1.70
2023-03-16T02:59:50.009Z,1.60
2023-03-16T03:02:02.774Z,1.40
2023-03-16T03:04:15.688Z,1.50
2023-03-16T03:06:28.466Z,1.30
2023-03-16T03:08:41.608Z,1.30
2023-03-16T03:10:55.903Z,1.60
2023-03-16T03:13:09.752Z,1.20
2023-03-16T03:15:23.012Z,1.60
2023-03-16T03:17:49.830Z,1.60
2023-03-16T03:20:03.355Z,1.50
2023-03-16T03:22:20.069Z,1.80
2023-03-16T03:24:33.762Z,1.80
2023-03-16T03:26:47.662Z,1.60
2023-03-16T03:29:03.537Z,1.80
2023-03-16T03:31:22.546Z,1.80
2023-03-16T03:33:36.773Z,1.80
2023-03-16T03:35:49.318Z,1.70
2023-03-16T03:38:02.029Z,2.00
2023-03-16T03:40:17.901Z,1.40
2023-03-16T03:42:33.478Z,2.00
2023-03-16T03:44:46.486Z,1.50
2023-03-16T03:46:59.626Z,2.30
2023-03-16T03:49:13.189Z,2.20
2023-03-16T03:51:26.453Z,1.40
2023-03-16T03:53:49.430Z,2.30
2023-03-16T03:56:12.444Z,2.50
2023-03-16T03:58:25.377Z,2.30
2023-03-16T04:00:38.965Z,2.90
2023-03-16T04:02:53.257Z,2.10
2023-03-16T04:05:28.881Z,2.20
2023-03-16T04:07:41.612Z,2.50
2023-03-16T04:09:55.794Z,1.90
2023-03-16T04:12:20.623Z,2.50
2023-03-16T04:14:34.408Z,2.60
2023-03-16T04:16:47.802Z,1.20
2023-03-16T04:19:01.064Z,2.70
2023-03-16T04:21:17.107Z,2.40
2023-03-16T04:23:31.376Z,2.00
2023-03-16T04:25:44.079Z,2.60
2023-03-16T04:27:57.580Z,2.50
2023-03-16T04:30:17.660Z,2.50
2023-03-16T04:32:34.059Z,2.10
2023-03-16T04:34:48.382Z,2.10
2023-03-16T04:37:01.574Z,1.90
2023-03-16T04:39:18.697Z,2.10
2023-03-16T04:41:31.794Z,2.80
2023-03-16T04:43:54.398Z,3.40
2023-03-16T04:46:11.230Z,2.50
2023-03-16T04:50:35.040Z,3.80
2023-03-16T04:52:47.753Z,3.40
2023-03-16T04:55:00.862Z,2.90
2023-03-16T04:57:13.827Z,2.90
2023-03-16T04:59:29.859Z,3.90
2023-03-16T05:01:59.330Z,4.00
2023-03-16T05:04:18.919Z,3.10
2023-03-16T05:06:33.191Z,2.60
2023-03-16T05:08:47.126Z,3.20
2023-03-16T05:11:02.516Z,2.90
2023-03-16T05:13:18.033Z,3.40
2023-03-16T05:15:31.829Z,3.20
2023-03-16T05:17:52.463Z,3.60
2023-03-16T05:20:09.119Z,3.40
2023-03-16T05:22:22.758Z,2.80
2023-03-16T05:25:16.397Z,3.10
2023-03-16T05:27:31.441Z,3.30
2023-03-16T05:29:47.298Z,2.90
2023-03-16T05:32:00.634Z,3.10
2023-03-16T05:34:14.037Z,3.00
2023-03-16T05:36:27.646Z,2.80
2023-03-16T05:38:46.721Z,3.00
2023-03-16T05:41:08.120Z,3.30
2023-03-16T05:43:38.841Z,3.40
2023-03-16T05:45:51.651Z,3.60
2023-03-16T05:48:06.770Z,4.40
2023-03-16T05:50:21.410Z,3.90
2023-03-16T05:52:34.927Z,4.20
2023-03-16T05:54:53.263Z,4.80
2023-03-16T05:57:07.885Z,10.40
2023-03-16T05:59:23.035Z,4.10
2023-03-16T06:01:39.049Z,3.60
2023-03-16T06:03:53.054Z,3.70
2023-03-16T06:06:09.517Z,3.90
2023-03-16T06:08:33.590Z,3.60
2023-03-16T06:10:53.177Z,3.50
2023-03-16T06:13:06.525Z,3.70
2023-03-16T06:15:19.924Z,3.40
2023-03-16T06:17:33.409Z,3.30
2023-03-16T06:19:46.970Z,3.50
2023-03-16T06:22:00.504Z,3.60
2023-03-16T06:24:14.828Z,3.10
2023-03-16T06:28:38.546Z,3.40
2023-03-16T06:30:51.920Z,2.20
2023-03-16T06:33:05.128Z,1.90
2023-03-16T06:35:18.530Z,3.00
2023-03-16T06:37:41.064Z,3.70
2023-03-16T06:40:13.516Z,3.10
2023-03-16T06:42:26.918Z,3.30
2023-03-16T06:44:41.089Z,3.50
2023-03-16T06:46:55.793Z,3.20
2023-03-16T06:49:08.901Z,2.40
2023-03-16T06:51:22.094Z,1.90
2023-03-16T06:53:35.738Z,2.50
2023-03-16T06:55:49.626Z,1.80
2023-03-16T06:58:03.730Z,2.30
2023-03-16T07:00:20.172Z,2.50
2023-03-16T07:02:36.830Z,2.30
2023-03-16T07:05:06.715Z,2.20
2023-03-16T07:07:20.429Z,2.30
2023-03-16T07:09:34.346Z,2.00
2023-03-16T07:11:48.019Z,2.00
2023-03-16T07:14:01.048Z,2.40
2023-03-16T07:16:15.221Z,2.00
2023-03-16T07:18:28.939Z,1.90
2023-03-16T07:20:43.189Z,2.40
2023-03-16T07:22:56.534Z,1.90
2023-03-16T07:25:10.775Z,2.30
2023-03-16T07:27:27.259Z,2.30
2023-03-16T07:29:41.031Z,1.70
2023-03-16T07:31:55.088Z,2.00
2023-03-16T07:34:12.770Z,2.00
2023-03-16T07:36:32.843Z,2.10
2023-03-16T07:38:46.897Z,2.00
2023-03-16T07:41:00.425Z,2.30
2023-03-16T07:43:14.257Z,2.40
2023-03-16T07:45:34.936Z,2.70
2023-03-16T07:47:49.063Z,2.90
2023-03-16T07:50:14.414Z,3.00
2023-03-16T07:52:28.312Z,3.50
2023-03-16T07:54:42.312Z,3.50
2023-03-16T07:56:55.591Z,4.10
2023-03-16T07:59:29.789Z,4.00
2023-03-16T08:01:42.870Z,4.40
2023-03-16T08:03:56.456Z,4.30
2023-03-16T08:06:09.665Z,4.60
2023-03-16T08:08:23.478Z,3.70
2023-03-16T08:10:36.965Z,4.70
2023-03-16T08:12:56.209Z,4.10
2023-03-16T08:15:11.963Z,4.40
2023-03-16T08:17:25.471Z,4.90
2023-03-16T08:19:39.827Z,5.50
2023-03-16T08:22:01.057Z,4.50
2023-03-16T08:24:18.664Z,4.10
2023-03-16T08:26:31.960Z,4.20
2023-03-16T08:28:46.981Z,4.70
2023-03-16T08:31:00.854Z,5.00
2023-03-16T08:33:33.586Z,5.20
2023-03-16T08:35:47.517Z,4.60
2023-03-16T08:38:02.019Z,4.50
2023-03-16T08:40:19.859Z,4.50
2023-03-16T08:42:33.684Z,4.30
2023-03-16T08:44:48.846Z,4.70
2023-03-16T08:47:01.353Z,6.10
2023-03-16T08:49:15.159Z,5.40
2023-03-16T08:51:30.440Z,5.10
2023-03-16T08:53:43.213Z,5.20
2023-03-16T08:55:56.273Z,4.60
2023-03-16T08:58:10.217Z,3.90
2023-03-16T09:00:24.527Z,4.00
2023-03-16T09:02:39.657Z,3.60
2023-03-16T09:04:53.897Z,4.00
2023-03-16T09:07:09.208Z,4.40
2023-03-16T09:09:22.857Z,4.30
2023-03-16T09:11:36.193Z,4.20
2023-03-16T09:13:51.240Z,4.50
2023-03-16T09:16:06.822Z,3.20
2023-03-16T09:18:20.262Z,4.10
2023-03-16T09:20:33.434Z,4.40
2023-03-16T09:22:46.796Z,2.30
2023-03-16T09:25:00.269Z,4.00
2023-03-16T09:27:14.099Z,2.90
2023-03-16T09:29:29.035Z,3.30
2023-03-16T09:31:42.222Z,3.70
2023-03-16T09:33:56.158Z,3.80
2023-03-16T09:36:12.633Z,3.40
2023-03-16T09:38:27.737Z,3.30
2023-03-16T09:40:42.520Z,3.30
2023-03-16T09:43:04.814Z,3.80
2023-03-16T09:45:27.572Z,4.20
2023-03-16T09:47:41.888Z,3.40
2023-03-16T09:49:57.015Z,3.70
2023-03-16T09:52:16.448Z,3.40
2023-03-16T09:54:40.232Z,3.60
2023-03-16T09:56:55.738Z,3.60
2023-03-16T09:59:14.441Z,3.20
2023-03-16T10:01:39.927Z,3.20
2023-03-16T10:04:11.629Z,3.20
2023-03-16T10:06:25.839Z,3.40
2023-03-16T10:08:43.617Z,3.50
2023-03-16T10:11:08.742Z,3.70
2023-03-16T10:13:30.950Z,3.50
2023-03-16T10:18:00.126Z,2.70
2023-03-16T10:20:18.607Z,3.00
2023-03-16T10:22:35.853Z,3.90
2023-03-16T10:24:55.597Z,2.90
2023-03-16T10:27:10.769Z,3.50
2023-03-16T10:29:23.616Z,3.80
2023-03-16T10:31:42.314Z,3.10
2023-03-16T10:33:59.532Z,3.70
2023-03-16T10:36:27.158Z,5.80
2023-03-16T10:38:44.321Z,2.90
2023-03-16T10:40:58.830Z,3.00
2023-03-16T10:43:18.411Z,3.40
2023-03-16T10:45:37.648Z,2.60
2023-03-16T10:47:51.215Z,2.70
2023-03-16T10:50:13.681Z,3.00
2023-03-16T10:52:35.637Z,2.70
2023-03-16T10:54:55.543Z,2.90
2023-03-16T10:57:24.442Z,2.70
2023-03-16T10:59:39.460Z,3.10
2023-03-16T11:01:53.732Z,1.70
2023-03-16T11:04:16.632Z,2.60
2023-03-16T11:06:32.356Z,2.60
2023-03-16T11:08:46.471Z,2.60
2023-03-16T11:11:04.018Z,2.40
2023-03-16T11:13:19.942Z,3.20
2023-03-16T11:15:39.378Z,2.30
2023-03-16T11:17:56.368Z,2.80
2023-03-16T11:20:15.917Z,2.50
2023-03-16T11:22:31.189Z,2.50
2023-03-16T11:24:52.510Z,2.70
2023-03-16T11:27:13.704Z,2.20
2023-03-16T11:29:31.907Z,2.60
2023-03-16T11:31:54.580Z,2.30
2023-03-16T11:34:12.241Z,2.40
2023-03-16T11:36:47.509Z,2.40
2023-03-16T11:39:11.332Z,2.70
2023-03-16T11:41:31.871Z,2.40
2023-03-16T11:43:58.665Z,2.50
2023-03-16T11:46:18.587Z,2.50
2023-03-16T11:48:40.241Z,1.80
2023-03-16T11:51:05.537Z,2.90
2023-03-16T11:53:28.327Z,2.50
2023-03-16T11:55:47.898Z,2.90
2023-03-16T11:58:15.041Z,2.70
2023-03-16T12:00:37.159Z,2.60
2023-03-16T12:03:05.939Z,2.30
2023-03-16T12:05:56.658Z,3.30
2023-03-16T12:08:22.000Z,3.10
2023-03-16T12:10:40.198Z,2.50
2023-03-16T12:13:11.755Z,2.90
2023-03-16T12:15:37.096Z,2.50
2023-03-16T12:17:53.546Z,2.70
2023-03-16T12:20:11.789Z,2.40
2023-03-16T12:22:31.338Z,2.60
2023-03-16T12:24:50.046Z,2.70
2023-03-16T12:27:04.588Z,2.50
2023-03-16T12:29:27.547Z,3.00
2023-03-16T12:31:49.496Z,3.30
2023-03-16T12:34:12.823Z,3.00
2023-03-16T12:37:02.138Z,2.60
2023-03-16T12:39:21.732Z,2.60
2023-03-16T12:41:44.661Z,2.80
2023-03-16T12:44:18.826Z,2.90
2023-03-16T12:46:40.743Z,3.10
2023-03-16T12:48:57.333Z,3.70
2023-03-16T12:51:11.256Z,3.00
2023-03-16T12:53:43.287Z,2.90
2023-03-16T12:55:57.795Z,2.90
2023-03-16T12:58:13.625Z,3.00
2023-03-16T13:00:38.854Z,3.50
2023-03-16T13:02:58.916Z,3.30
2023-03-16T13:05:18.264Z,3.30
2023-03-16T13:07:34.473Z,3.20
2023-03-16T13:09:54.466Z,3.10
2023-03-16T13:12:08.418Z,3.90
2023-03-16T13:14:39.458Z,4.20
2023-03-16T13:16:54.918Z,3.50
2023-03-16T13:19:27.176Z,4.30
2023-03-16T13:21:44.640Z,5.00
2023-03-16T13:24:16.745Z,3.30
2023-03-16T13:26:45.066Z,3.40
2023-03-16T13:28:58.849Z,3.20
2023-03-16T13:31:23.495Z,5.40
2023-03-16T13:33:41.936Z,4.40
2023-03-16T13:35:56.289Z,4.00
2023-03-16T13:38:21.143Z,3.80
2023-03-16T13:40:33.807Z,4.10
2023-03-16T13:42:49.758Z,4.10
2023-03-16T13:45:10.902Z,4.60
2023-03-16T13:47:25.796Z,3.50
2023-03-16T13:49:50.050Z,3.80
2023-03-16T13:52:06.533Z,1.90
2023-03-16T13:54:27.468Z,3.60
2023-03-16T13:56:41.474Z,3.60
2023-03-16T13:58:56.168Z,4.10
2023-03-16T14:01:19.105Z,2.60
2023-03-16T14:03:38.064Z,3.50
2023-03-16T14:05:51.514Z,3.80
2023-03-16T14:08:06.007Z,3.30
2023-03-16T14:10:21.925Z,2.90
2023-03-16T14:12:34.371Z,4.00
2023-03-16T14:14:51.315Z,3.10
2023-03-16T14:17:13.951Z,3.60
2023-03-16T14:19:36.898Z,3.40
2023-03-16T14:21:50.836Z,2.80
2023-03-16T14:24:07.371Z,3.20
2023-03-16T14:26:25.998Z,3.20
2023-03-16T14:28:40.064Z,2.60
2023-03-16T14:31:07.507Z,3.40
2023-03-16T14:33:32.912Z,3.90
2023-03-16T14:35:49.520Z,2.60
2023-03-16T14:38:21.861Z,3.10
2023-03-16T14:40:39.321Z,3.50
2023-03-16T14:42:53.859Z,2.90
2023-03-16T14:45:09.883Z,3.00
2023-03-16T14:47:29.144Z,3.50
2023-03-16T14:49:43.594Z,3.30
2023-03-16T14:51:58.657Z,3.70
2023-03-16T14:54:18.977Z,3.40
2023-03-16T14:56:38.609Z,3.50
2023-03-16T14:58:51.663Z,3.30
2023-03-16T15:01:06.064Z,3.80
2023-03-16T15:03:21.597Z,2.90
2023-03-16T15:05:39.403Z,2.50
2023-03-16T15:07:54.915Z,3.20
2023-03-16T15:10:23.840Z,3.20
2023-03-16T15:12:38.970Z,2.70
2023-03-16T15:15:09.235Z,4.10
2023-03-16T15:17:22.209Z,4.60
2023-03-16T15:19:35.159Z,3.60
2023-03-16T15:21:49.850Z,3.10
2023-03-16T15:24:02.990Z,3.30
2023-03-16T15:26:17.745Z,3.00
2023-03-16T15:28:31.839Z,3.30
2023-03-16T15:30:44.934Z,3.50
2023-03-16T15:32:57.714Z,2.90
2023-03-16T15:35:12.340Z,4.00
2023-03-16T15:37:28.550Z,3.00
2023-03-16T15:39:41.314Z,3.80
2023-03-16T15:41:54.340Z,3.80
2023-03-16T15:44:09.560Z,2.20
2023-03-16T15:46:22.372Z,3.90
2023-03-16T15:48:35.475Z,5.10
2023-03-16T15:50:53.812Z,4.00
2023-03-16T15:53:20.444Z,4.30
2023-03-16T15:55:44.863Z,3.50
2023-03-16T15:58:01.873Z,3.60
2023-03-16T16:00:31.421Z,3.50
2023-03-16T16:02:43.954Z,4.00
2023-03-16T16:04:57.432Z,3.40
2023-03-16T16:07:14.761Z,3.60
2023-03-16T16:09:27.854Z,3.80
2023-03-16T16:11:41.346Z,2.70
2023-03-16T16:13:56.246Z,3.70
2023-03-16T16:16:09.793Z,3.20
2023-03-16T16:18:33.114Z,3.00
2023-03-16T16:20:45.610Z,2.80
2023-03-16T16:23:01.030Z,2.90
2023-03-16T16:25:16.291Z,3.10
2023-03-16T16:27:29.326Z,3.20
2023-03-16T16:29:42.410Z,3.50
2023-03-16T16:31:56.337Z,3.50
2023-03-16T16:34:14.100Z,2.90
2023-03-16T16:36:27.304Z,3.10
2023-03-16T16:38:40.244Z,2.80
2023-03-16T16:40:54.434Z,2.80
2023-03-16T16:43:10.577Z,2.60
2023-03-16T16:45:26.412Z,3.10
2023-03-16T16:47:40.518Z,2.60
2023-03-16T16:49:53.788Z,3.10
2023-03-16T16:52:07.546Z,2.90
2023-03-16T16:54:24.912Z,2.70
2023-03-16T16:56:39.713Z,2.10
2023-03-16T16:58:52.709Z,2.30
2023-03-16T17:01:05.700Z,2.40
2023-03-16T17:03:27.087Z,2.60
2023-03-16T17:05:40.421Z,2.50
2023-03-16T17:07:54.647Z,2.20
2023-03-16T17:10:08.294Z,2.20
2023-03-16T17:12:26.108Z,1.90
2023-03-16T17:14:39.142Z,2.20
2023-03-16T17:16:52.856Z,2.00
2023-03-16T17:19:08.189Z,2.10
2023-03-16T17:21:24.621Z,1.70
2023-03-16T17:23:38.730Z,1.90
2023-03-16T17:25:51.605Z,1.60
2023-03-16T17:28:08.219Z,1.40
2023-03-16T17:30:33.224Z,1.10
2023-03-16T17:32:46.321Z,1.00
2023-03-16T17:34:59.497Z,1.30
2023-03-16T17:37:16.045Z,1.00
2023-03-16T17:39:31.289Z,1.00
2023-03-16T17:41:44.514Z,0.90
2023-03-16T17:43:58.154Z,0.90
2023-03-16T17:46:14.992Z,1.20
2023-03-16T17:48:30.359Z,0.90
2023-03-16T17:50:43.804Z,1.20
2023-03-16T17:52:57.215Z,0.90
2023-03-16T17:55:12.007Z,0.80
2023-03-16T17:57:28.614Z,0.80
2023-03-16T17:59:42.078Z,1.00
2023-03-16T18:01:55.181Z,0.80
2023-03-16T18:04:10.714Z,0.70
2023-03-16T18:06:26.720Z,0.90
2023-03-16T18:08:39.810Z,1.20
2023-03-16T18:10:55.983Z,0.70
2023-03-16T18:13:16.964Z,0.40
2023-03-16T18:15:34.675Z,0.90
2023-03-16T18:17:48.219Z,0.80
2023-03-16T18:20:01.629Z,0.60
2023-03-16T18:22:22.333Z,1.00
2023-03-16T18:24:35.738Z,0.70
2023-03-16T18:26:48.955Z,0.70
2023-03-16T18:29:01.975Z,0.70
2023-03-16T18:31:24.765Z,0.60
2023-03-16T18:33:39.249Z,0.70
2023-03-16T18:35:52.805Z,0.40
2023-03-16T18:38:05.710Z,0.80
2023-03-16T18:40:22.034Z,0.90
2023-03-16T18:42:35.244Z,1.00
2023-03-16T18:44:48.314Z,0.60
2023-03-16T18:47:05.990Z,0.90
2023-03-16T18:49:24.104Z,1.20
2023-03-16T18:51:37.617Z,0.60
2023-03-16T18:53:51.420Z,0.50
2023-03-16T18:56:04.280Z,1.10
2023-03-16T18:58:19.818Z,0.60
2023-03-16T19:00:33.130Z,1.20
2023-03-16T19:02:48.258Z,0.80
2023-03-16T19:05:03.042Z,0.90
2023-03-16T19:07:27.565Z,0.80
2023-03-16T19:09:40.825Z,0.80
2023-03-16T19:11:54.511Z,0.70
2023-03-16T19:14:14.667Z,0.80
2023-03-16T19:16:28.214Z,0.80
2023-03-16T19:18:45.842Z,0.90
2023-03-16T19:21:00.165Z,0.80
2023-03-16T19:23:19.450Z,0.80
2023-03-16T19:25:36.119Z,0.90
2023-03-16T19:27:49.358Z,1.00
2023-03-16T19:30:04.447Z,0.80
2023-03-16T19:32:22.528Z,0.70
2023-03-16T19:34:35.584Z,0.80
2023-03-16T19:36:48.819Z,0.80
2023-03-16T19:39:02.465Z,0.60
2023-03-16T19:41:27.964Z,1.40
2023-03-16T19:43:41.233Z,0.70
2023-03-16T19:45:55.785Z,0.70
2023-03-16T19:48:13.820Z,0.70
2023-03-16T19:50:28.548Z,0.70
2023-03-16T19:52:40.988Z,0.70
2023-03-16T19:54:53.684Z,0.70
2023-03-16T19:57:13.417Z,0.80
2023-03-16T19:59:27.744Z,1.00
2023-03-16T20:01:40.675Z,0.80
2023-03-16T20:03:55.806Z,0.90
2023-03-16T20:06:09.703Z,0.90
2023-03-16T20:08:27.873Z,0.70
2023-03-16T20:10:40.524Z,0.70
2023-03-16T20:12:55.884Z,0.60
2023-03-16T20:15:09.307Z,1.10
2023-03-16T20:17:27.449Z,1.00
2023-03-16T20:19:40.474Z,0.60
2023-03-16T20:21:53.654Z,0.70
2023-03-16T20:24:06.996Z,0.80
2023-03-16T20:26:25.556Z,0.80
2023-03-16T20:28:41.206Z,0.80
2023-03-16T20:30:55.207Z,0.80
2023-03-16T20:33:08.178Z,0.80
2023-03-16T20:35:30.465Z,0.80
2023-03-16T20:37:44.270Z,0.60
2023-03-16T20:39:58.478Z,1.00
2023-03-16T20:42:14.565Z,0.50
2023-03-16T20:44:30.543Z,0.70
2023-03-16T20:46:45.753Z,0.90
2023-03-16T20:48:58.875Z,0.70
2023-03-16T20:51:15.409Z,0.50
2023-03-16T20:53:28.822Z,0.70
2023-03-16T20:55:42.069Z,0.80
2023-03-16T20:57:58.522Z,0.60
2023-03-16T21:00:21.158Z,0.60
2023-03-16T21:02:36.807Z,0.80
2023-03-16T21:04:49.822Z,0.70
2023-03-16T21:07:02.588Z,0.80
2023-03-16T21:09:15.724Z,0.90
2023-03-16T21:11:33.087Z,0.50
2023-03-16T21:13:45.932Z,0.60
2023-03-16T21:18:17.019Z,0.80
2023-03-16T21:20:32.015Z,1.00
2023-03-16T21:22:45.415Z,0.80
2023-03-16T21:24:58.833Z,1.00
2023-03-16T21:27:15.605Z,1.10
2023-03-16T21:29:28.446Z,1.00
2023-03-16T21:31:42.408Z,0.80
2023-03-16T21:33:56.738Z,0.70
2023-03-16T21:36:16.381Z,1.00
2023-03-16T21:38:30.319Z,1.60
2023-03-16T21:40:43.161Z,1.20
2023-03-16T21:42:55.895Z,0.80
2023-03-16T21:45:09.461Z,0.70
2023-03-16T21:47:28.973Z,0.70
2023-03-16T21:49:42.498Z,0.90
2023-03-16T21:51:57.209Z,0.90
2023-03-16T21:54:15.291Z,0.60
2023-03-16T21:56:30.125Z,1.10
2023-03-16T21:58:42.697Z,0.90
2023-03-16T22:00:58.061Z,0.60
2023-03-16T22:03:47.978Z,1.00
2023-03-16T22:06:04.379Z,0.70
2023-03-16T22:08:21.579Z,0.90
2023-03-16T22:10:34.762Z,0.80
2023-03-16T22:12:47.363Z,0.80
2023-03-16T22:15:00.559Z,1.60
2023-03-16T22:17:19.356Z,1.30
2023-03-16T22:19:32.406Z,1.00
2023-03-16T22:21:47.670Z,0.80
2023-03-16T22:24:02.879Z,0.80
2023-03-16T22:26:26.430Z,0.90
2023-03-16T22:28:39.286Z,0.90
2023-03-16T22:30:53.028Z,1.10
2023-03-16T22:33:06.416Z,1.00
2023-03-16T22:35:32.505Z,1.00
2023-03-16T22:37:45.172Z,0.80
2023-03-16T22:39:59.541Z,1.00
2023-03-16T22:42:28.416Z,1.10
2023-03-16T22:44:41.222Z,0.80
2023-03-16T22:46:55.058Z,0.70
2023-03-16T22:49:21.199Z,0.90
2023-03-16T22:51:37.825Z,1.00
2023-03-16T22:53:51.851Z,0.90
2023-03-16T22:56:05.376Z,0.90
2023-03-16T22:58:26.328Z,1.00
2023-03-16T23:00:39.242Z,0.90
2023-03-16T23:02:52.681Z,1.10
2023-03-16T23:05:05.473Z,0.90
2023-03-16T23:07:20.782Z,0.80
2023-03-16T23:09:33.957Z,0.60
2023-03-16T23:11:47.493Z,0.80
2023-03-16T23:14:00.768Z,0.90
2023-03-16T23:16:24.290Z,0.90
2023-03-16T23:18:37.626Z,1.00
2023-03-16T23:20:52.029Z,0.80
2023-03-16T23:23:05.194Z,1.00
2023-03-16T23:25:18.306Z,0.70
2023-03-16T23:27:31.059Z,1.10
2023-03-16T23:29:44.333Z,1.00
2023-03-16T23:31:57.664Z,0.70
2023-03-16T23:34:16.001Z,0.90
2023-03-16T23:36:29.178Z,0.80
2023-03-16T23:38:42.216Z,1.10
2023-03-16T23:40:55.058Z,1.00
2023-03-16T23:43:08.853Z,1.20
2023-03-16T23:45:36.871Z,1.10
2023-03-16T23:47:50.561Z,0.90
2023-03-16T23:50:03.417Z,1.30
2023-03-16T23:52:16.392Z,1.20
2023-03-16T23:54:31.679Z,1.10
2023-03-16T23:56:44.103Z,0.80
2023-03-16T23:58:57.061Z,1.00
